createdAt,value
2023-05-24T00:01:44.343Z,16.10
2023-05-24T00:04:18.379Z,16.10
2023-05-24T00:06:49.788Z,16.10
2023-05-24T00:09:22.030Z,16.10
2023-05-24T00:11:53.260Z,16.10
2023-05-24T00:14:23.964Z,16.10
2023-05-24T00:16:54.989Z,16.00
2023-05-24T00:19:26.666Z,16.00
2023-05-24T00:21:58.913Z,16.00
2023-05-24T00:24:30.687Z,16.00
2023-05-24T00:27:01.918Z,16.00
2023-05-24T00:29:32.375Z,16.00
2023-05-24T00:32:02.964Z,16.00
2023-05-24T00:34:32.766Z,16.00
2023-05-24T00:37:03.303Z,15.90
2023-05-24T00:42:17.914Z,15.90
2023-05-24T00:44:49.759Z,15.90
2023-05-24T00:47:19.426Z,15.80
2023-05-24T00:49:47.654Z,15.70
2023-05-24T00:52:20.247Z,15.70
2023-05-24T00:54:52.237Z,15.70
2023-05-24T00:57:21.816Z,15.60
2023-05-24T00:59:50.189Z,15.60
2023-05-24T01:02:23.548Z,15.60
2023-05-24T01:04:52.526Z,15.60
2023-05-24T01:08:04.016Z,15.50
2023-05-24T01:11:03.693Z,15.40
2023-05-24T01:13:57.798Z,15.40
2023-05-24T01:16:54.398Z,15.40
2023-05-24T01:19:57.714Z,15.30
2023-05-24T01:23:04.622Z,15.20
2023-05-24T01:26:00.804Z,15.20
2023-05-24T01:28:35.705Z,15.10
2023-05-24T01:31:06.694Z,15.10
2023-05-24T01:33:38.449Z,15.10
2023-05-24T01:36:06.823Z,15.00
2023-05-24T01:38:39.266Z,15.10
2023-05-24T01:41:25.904Z,15.00
2023-05-24T01:44:34.065Z,15.00
2023-05-24T01:47:43.265Z,15.00
2023-05-24T01:50:26.516Z,14.90
2023-05-24T01:52:55.269Z,14.90
2023-05-24T01:55:24.730Z,14.90
2023-05-24T01:57:55.530Z,14.80
2023-05-24T02:00:24.323Z,14.70
2023-05-24T02:03:01.474Z,14.70
2023-05-24T02:05:38.395Z,14.60
2023-05-24T02:08:11.803Z,14.60
2023-05-24T02:10:45.887Z,14.50
2023-05-24T02:13:15.143Z,14.40
2023-05-24T02:15:45.420Z,14.40
2023-05-24T02:18:14.831Z,14.40
2023-05-24T02:21:13.353Z,14.40
2023-05-24T02:23:43.118Z,14.30
2023-05-24T02:26:15.704Z,14.30
2023-05-24T02:28:46.316Z,14.30
2023-05-24T02:31:15.410Z,14.20
2023-05-24T02:33:50.717Z,14.10
2023-05-24T02:36:19.886Z,14.10
2023-05-24T02:38:49.646Z,14.10
2023-05-24T02:41:25.954Z,14.10
2023-05-24T02:43:57.282Z,14.00
2023-05-24T02:46:25.560Z,14.10
2023-05-24T02:48:57.317Z,14.00
2023-05-24T02:51:28.879Z,14.00
2023-05-24T02:53:59.297Z,14.00
2023-05-24T02:56:28.982Z,14.00
2023-05-24T02:59:00.774Z,13.90
2023-05-24T03:01:31.415Z,13.90
2023-05-24T03:04:03.007Z,13.90
2023-05-24T03:06:34.895Z,13.70
2023-05-24T03:09:04.605Z,13.80
2023-05-24T03:11:40.220Z,13.70
2023-05-24T03:14:14.550Z,13.60
2023-05-24T03:16:46.691Z,13.60
2023-05-24T03:19:18.214Z,13.60
2023-05-24T03:21:48.584Z,13.70
2023-05-24T03:24:19.906Z,13.70
2023-05-24T03:26:49.197Z,13.60
2023-05-24T03:29:20.355Z,13.60
2023-05-24T03:31:52.875Z,13.60
2023-05-24T03:34:24.612Z,13.70
2023-05-24T03:36:55.712Z,13.70
2023-05-24T03:39:23.395Z,13.70
2023-05-24T03:42:12.609Z,13.70
2023-05-24T03:44:42.288Z,13.70
2023-05-24T03:47:12.786Z,13.70
2023-05-24T03:49:44.475Z,13.80
2023-05-24T03:52:16.064Z,13.90
2023-05-24T03:54:46.544Z,13.90
2023-05-24T03:57:17.175Z,13.90
2023-05-24T03:59:47.319Z,14.00
2023-05-24T04:02:22.937Z,14.00
2023-05-24T04:07:39.606Z,14.10
2023-05-24T04:10:10.629Z,14.10
2023-05-24T04:12:52.793Z,14.10
2023-05-24T04:15:20.119Z,14.10
2023-05-24T04:17:51.290Z,14.10
2023-05-24T04:20:21.366Z,14.20
2023-05-24T04:22:54.163Z,14.20
2023-05-24T04:25:31.083Z,14.30
2023-05-24T04:28:10.586Z,14.20
2023-05-24T04:30:41.316Z,14.30
2023-05-24T04:33:13.761Z,14.40
2023-05-24T04:35:43.951Z,14.40
2023-05-24T04:38:17.106Z,14.40
2023-05-24T04:40:44.556Z,14.40
2023-05-24T04:43:16.299Z,14.50
2023-05-24T04:45:50.594Z,14.60
2023-05-24T04:48:19.792Z,14.70
2023-05-24T04:50:47.958Z,14.80
2023-05-24T04:53:18.909Z,14.90
2023-05-24T04:55:48.054Z,15.00
2023-05-24T04:58:16.594Z,15.10
2023-05-24T05:00:48.477Z,15.10
2023-05-24T05:03:19.802Z,15.10
2023-05-24T05:05:49.320Z,15.20
2023-05-24T05:08:19.630Z,15.30
2023-05-24T05:10:50.898Z,15.20
2023-05-24T05:13:24.986Z,15.40
2023-05-24T05:15:55.976Z,15.40
2023-05-24T05:18:23.100Z,15.50
2023-05-24T05:20:52.543Z,15.60
2023-05-24T05:23:22.940Z,15.60
2023-05-24T05:25:52.380Z,15.70
2023-05-24T05:28:22.950Z,15.80
2023-05-24T05:30:52.864Z,15.80
2023-05-24T05:33:24.047Z,15.90
2023-05-24T05:35:55.146Z,15.90
2023-05-24T05:38:25.561Z,15.90
2023-05-24T05:40:56.721Z,15.90
2023-05-24T05:43:31.742Z,15.90
2023-05-24T05:46:03.849Z,16.00
2023-05-24T05:48:33.587Z,16.10
2023-05-24T05:54:23.180Z,16.20
2023-05-24T05:57:03.076Z,16.40
2023-05-24T05:59:36.506Z,16.30
2023-05-24T06:02:06.820Z,16.40
2023-05-24T06:04:38.108Z,16.40
2023-05-24T06:07:08.207Z,16.60
2023-05-24T06:09:38.987Z,16.60
2023-05-24T06:12:08.550Z,16.60
2023-05-24T06:14:39.517Z,16.70
2023-05-24T06:17:08.691Z,16.70
2023-05-24T06:19:38.836Z,16.80
2023-05-24T06:22:09.843Z,16.80
2023-05-24T06:24:40.205Z,16.70
2023-05-24T06:27:11.571Z,16.70
2023-05-24T06:29:43.128Z,16.70
2023-05-24T06:32:13.328Z,16.80
2023-05-24T06:34:43.053Z,16.80
2023-05-24T06:37:18.219Z,16.90
2023-05-24T06:39:48.554Z,17.00
2023-05-24T06:42:22.775Z,17.10
2023-05-24T06:47:34.925Z,17.30
2023-05-24T06:50:07.400Z,17.20
2023-05-24T06:52:39.831Z,17.10
2023-05-24T06:55:13.650Z,17.20
2023-05-24T06:57:43.921Z,17.20
2023-05-24T07:00:15.476Z,17.30
2023-05-24T07:02:49.016Z,17.40
2023-05-24T07:05:17.130Z,17.50
2023-05-24T07:07:45.742Z,17.60
2023-05-24T07:10:17.687Z,17.50
2023-05-24T07:12:49.128Z,17.40
2023-05-24T07:15:20.328Z,17.40
2023-05-24T07:17:50.978Z,17.60
2023-05-24T07:20:23.427Z,17.60
2023-05-24T07:22:57.516Z,17.60
2023-05-24T07:25:27.708Z,17.80
2023-05-24T07:28:00.519Z,18.10
2023-05-24T07:30:37.693Z,18.20
2023-05-24T07:33:07.442Z,18.20
2023-05-24T07:35:34.337Z,18.10
2023-05-24T07:38:04.561Z,18.10
2023-05-24T07:40:35.507Z,18.10
2023-05-24T07:43:04.486Z,18.20
2023-05-24T07:45:34.497Z,18.40
2023-05-24T07:48:06.263Z,18.70
2023-05-24T07:50:36.400Z,18.90
2023-05-24T07:53:07.315Z,19.20
2023-05-24T07:55:37.866Z,19.20
2023-05-24T07:58:10.187Z,19.20
2023-05-24T08:00:40.331Z,19.20
2023-05-24T08:03:11.754Z,19.20
2023-05-24T08:05:43.663Z,19.20
2023-05-24T08:08:19.246Z,18.90
2023-05-24T08:10:49.438Z,18.60
2023-05-24T08:13:26.854Z,18.70
2023-05-24T08:16:07.457Z,18.90
2023-05-24T08:18:39.182Z,19.10
2023-05-24T08:21:11.257Z,19.20
2023-05-24T08:23:46.700Z,19.30
2023-05-24T08:26:22.142Z,19.40
2023-05-24T08:28:53.519Z,19.60
2023-05-24T08:31:22.107Z,19.70
2023-05-24T08:33:56.072Z,19.80
2023-05-24T08:36:24.144Z,19.90
2023-05-24T08:38:54.463Z,20.00
2023-05-24T08:41:25.073Z,19.80
2023-05-24T08:43:58.385Z,19.90
2023-05-24T08:46:26.501Z,19.90
2023-05-24T08:48:58.499Z,19.90
2023-05-24T08:51:27.973Z,20.00
2023-05-24T08:53:57.866Z,20.10
2023-05-24T08:56:29.659Z,20.00
2023-05-24T08:59:01.971Z,19.90
2023-05-24T09:01:36.695Z,19.60
2023-05-24T09:04:08.830Z,19.70
2023-05-24T09:06:38.289Z,19.80
2023-05-24T09:09:11.375Z,19.90
2023-05-24T09:11:46.126Z,19.80
2023-05-24T09:14:16.999Z,19.80
2023-05-24T09:16:46.685Z,19.90
2023-05-24T09:19:18.006Z,19.90
2023-05-24T09:21:48.684Z,19.90
2023-05-24T09:24:16.850Z,20.10
2023-05-24T09:26:47.177Z,20.10
2023-05-24T09:29:15.293Z,20.20
2023-05-24T09:31:46.158Z,20.20
2023-05-24T09:34:19.626Z,20.20
2023-05-24T09:36:51.443Z,20.30
2023-05-24T09:39:23.518Z,20.40
2023-05-24T09:41:58.866Z,20.50
2023-05-24T09:44:33.482Z,20.50
2023-05-24T09:47:08.090Z,20.40
2023-05-24T09:49:37.738Z,20.30
2023-05-24T09:52:06.362Z,20.30
2023-05-24T09:54:36.407Z,20.20
2023-05-24T09:57:07.095Z,20.20
2023-05-24T09:59:41.982Z,20.30
2023-05-24T10:05:04.355Z,20.60
2023-05-24T10:07:42.764Z,20.50
2023-05-24T10:10:10.657Z,20.10
2023-05-24T10:12:44.252Z,20.00
2023-05-24T10:15:14.822Z,19.90
2023-05-24T10:17:46.451Z,20.00
2023-05-24T10:20:24.349Z,19.70
2023-05-24T10:22:55.232Z,19.70
2023-05-24T10:25:50.116Z,19.80
2023-05-24T10:28:22.192Z,19.90
2023-05-24T10:31:16.130Z,19.90
2023-05-24T10:33:48.620Z,20.00
2023-05-24T10:36:21.699Z,20.00
2023-05-24T10:38:53.176Z,20.10
2023-05-24T10:41:39.176Z,20.10
2023-05-24T10:44:14.727Z,20.10
2023-05-24T10:47:20.103Z,20.20
2023-05-24T10:50:19.550Z,20.40
2023-05-24T10:52:51.570Z,20.30
2023-05-24T10:55:25.255Z,20.20
2023-05-24T10:57:59.557Z,20.00
2023-05-24T11:00:40.070Z,19.90
2023-05-24T11:03:12.328Z,19.80
2023-05-24T11:06:02.834Z,19.70
2023-05-24T11:08:49.832Z,19.80
2023-05-24T11:11:28.664Z,19.80
2023-05-24T11:14:02.574Z,19.80
2023-05-24T11:16:42.602Z,19.90
2023-05-24T11:19:44.706Z,20.10
2023-05-24T11:22:31.328Z,20.40
2023-05-24T11:25:06.084Z,20.40
2023-05-24T11:27:36.257Z,20.40
2023-05-24T11:30:08.194Z,20.20
2023-05-24T11:32:44.537Z,20.40
2023-05-24T11:35:17.551Z,20.60
2023-05-24T11:37:48.416Z,20.70
2023-05-24T11:40:18.126Z,20.70
2023-05-24T11:42:49.403Z,20.80
2023-05-24T11:45:19.041Z,20.70
2023-05-24T11:47:48.423Z,20.70
2023-05-24T11:50:46.011Z,20.70
2023-05-24T11:53:18.732Z,20.70
2023-05-24T11:55:48.881Z,20.70
2023-05-24T11:58:37.086Z,20.80
2023-05-24T12:01:07.966Z,20.80
2023-05-24T12:03:36.560Z,20.70
2023-05-24T12:06:06.220Z,20.60
2023-05-24T12:08:37.828Z,20.60
2023-05-24T12:11:11.930Z,20.70
2023-05-24T12:13:43.019Z,20.70
2023-05-24T12:16:22.773Z,20.80
2023-05-24T12:19:04.178Z,20.80
2023-05-24T12:21:43.252Z,20.90
2023-05-24T12:24:26.033Z,20.90
2023-05-24T12:27:09.541Z,20.80
2023-05-24T12:29:40.665Z,20.80
2023-05-24T12:32:17.587Z,20.70
2023-05-24T12:34:51.682Z,20.70
2023-05-24T12:37:24.748Z,20.60
2023-05-24T12:39:54.528Z,20.60
2023-05-24T12:42:26.977Z,20.50
2023-05-24T12:45:04.215Z,20.40
2023-05-24T12:47:42.656Z,20.40
2023-05-24T12:52:53.995Z,20.40
2023-05-24T12:55:44.254Z,20.40
2023-05-24T12:58:19.122Z,20.50
2023-05-24T13:00:50.496Z,20.70
2023-05-24T13:03:20.644Z,20.90
2023-05-24T13:06:10.789Z,20.90
2023-05-24T13:08:41.274Z,20.90
2023-05-24T13:11:11.657Z,20.80
2023-05-24T13:13:42.684Z,20.90
2023-05-24T13:16:15.653Z,20.60
2023-05-24T13:18:48.128Z,20.50
2023-05-24T13:21:17.594Z,20.40
2023-05-24T13:23:49.938Z,20.40
2023-05-24T13:26:20.817Z,20.40
2023-05-24T13:29:15.664Z,20.40
2023-05-24T13:31:46.415Z,20.40
2023-05-24T13:34:15.784Z,20.20
2023-05-24T13:36:45.238Z,20.30
2023-05-24T13:39:16.518Z,20.20
2023-05-24T13:41:45.468Z,20.10
2023-05-24T13:44:19.646Z,20.00
2023-05-24T13:46:49.870Z,20.00
2023-05-24T13:49:20.427Z,20.00
2023-05-24T13:51:51.675Z,20.00
2023-05-24T13:54:21.690Z,20.00
2023-05-24T13:56:52.225Z,19.90
2023-05-24T13:59:22.699Z,19.90
2023-05-24T14:01:52.252Z,19.90
2023-05-24T14:04:23.595Z,19.80
2023-05-24T14:06:55.358Z,19.90
2023-05-24T14:09:26.460Z,19.90
2023-05-24T14:11:59.967Z,19.90
2023-05-24T14:17:03.373Z,19.90
2023-05-24T14:19:34.244Z,19.90
2023-05-24T14:22:05.246Z,20.00
2023-05-24T14:24:36.699Z,20.00
2023-05-24T14:27:09.537Z,20.00
2023-05-24T14:29:41.152Z,20.00
2023-05-24T14:32:16.392Z,20.10
2023-05-24T14:34:48.026Z,20.00
2023-05-24T14:37:20.947Z,19.90
2023-05-24T14:39:52.138Z,20.00
2023-05-24T14:42:24.652Z,20.10
2023-05-24T14:44:53.500Z,20.10
2023-05-24T14:47:24.156Z,20.20
2023-05-24T14:49:56.474Z,20.30
2023-05-24T14:52:27.469Z,20.40
2023-05-24T14:54:56.654Z,20.40
2023-05-24T14:57:23.627Z,20.30
2023-05-24T14:59:57.551Z,20.40
2023-05-24T15:02:28.252Z,20.50
2023-05-24T15:04:59.837Z,20.40
2023-05-24T15:07:29.753Z,20.40
2023-05-24T15:10:00.806Z,20.50
2023-05-24T15:12:32.068Z,20.50
2023-05-24T15:15:02.767Z,20.50
2023-05-24T15:17:31.686Z,20.50
2023-05-24T15:20:02.960Z,20.50
2023-05-24T15:22:35.210Z,20.40
2023-05-24T15:25:09.201Z,20.30
2023-05-24T15:27:40.884Z,20.40
2023-05-24T15:30:10.692Z,20.50
2023-05-24T15:32:41.375Z,20.40
2023-05-24T15:35:12.453Z,20.40
2023-05-24T15:37:44.919Z,20.30
2023-05-24T15:40:18.263Z,20.40
2023-05-24T15:42:48.688Z,20.40
2023-05-24T15:45:21.107Z,20.50
2023-05-24T15:47:53.606Z,20.60
2023-05-24T15:50:42.629Z,20.50
2023-05-24T15:53:14.943Z,20.40
2023-05-24T15:55:46.830Z,20.30
2023-05-24T15:58:19.501Z,20.20
2023-05-24T16:00:50.774Z,20.20
2023-05-24T16:03:20.290Z,20.10
2023-05-24T16:05:50.715Z,20.10
2023-05-24T16:08:21.463Z,20.00
2023-05-24T16:10:51.628Z,19.90
2023-05-24T16:13:24.408Z,19.90
2023-05-24T16:15:51.862Z,19.90
2023-05-24T16:18:25.732Z,19.90
2023-05-24T16:20:53.288Z,19.90
2023-05-24T16:23:27.156Z,20.00
2023-05-24T16:25:58.836Z,20.10
2023-05-24T16:28:26.583Z,20.10
2023-05-24T16:31:14.898Z,20.10
2023-05-24T16:33:43.957Z,20.00
2023-05-24T16:36:14.706Z,20.00
2023-05-24T16:38:45.835Z,19.90
2023-05-24T16:41:15.667Z,19.90
2023-05-24T16:43:45.451Z,19.90
2023-05-24T16:46:16.724Z,19.90
2023-05-24T16:48:46.737Z,19.90
2023-05-24T16:51:19.336Z,19.90
2023-05-24T16:53:51.776Z,19.80
2023-05-24T16:56:21.573Z,19.80
2023-05-24T16:58:51.534Z,19.70
2023-05-24T17:01:25.238Z,19.70
2023-05-24T17:03:56.500Z,19.70
2023-05-24T17:06:24.398Z,19.80
2023-05-24T17:08:53.905Z,19.80
2023-05-24T17:11:23.396Z,19.70
2023-05-24T17:13:54.724Z,19.70
2023-05-24T17:16:23.064Z,19.70
2023-05-24T17:18:53.706Z,19.60
2023-05-24T17:21:24.033Z,19.70
2023-05-24T17:23:58.860Z,19.70
2023-05-24T17:26:28.377Z,19.70
2023-05-24T17:28:59.037Z,19.70
2023-05-24T17:31:26.756Z,19.70
2023-05-24T17:33:57.732Z,19.60
2023-05-24T17:36:26.775Z,19.50
2023-05-24T17:39:00.006Z,19.40
2023-05-24T17:41:38.254Z,19.40
2023-05-24T17:44:07.180Z,19.30
2023-05-24T17:46:40.534Z,19.30
2023-05-24T17:49:16.944Z,19.30
2023-05-24T17:51:50.738Z,19.30
2023-05-24T17:54:23.541Z,19.20
2023-05-24T17:56:54.830Z,19.20
2023-05-24T17:59:28.060Z,19.10
2023-05-24T18:02:00.632Z,19.10
2023-05-24T18:04:34.211Z,19.00
2023-05-24T18:07:07.023Z,19.10
2023-05-24T18:09:40.700Z,19.00
2023-05-24T18:12:14.055Z,19.00
2023-05-24T18:14:51.123Z,18.90
2023-05-24T18:17:21.469Z,18.90
2023-05-24T18:19:50.352Z,18.80
2023-05-24T18:22:25.170Z,18.80
2023-05-24T18:24:59.388Z,18.80
2023-05-24T18:27:30.964Z,18.70
2023-05-24T18:30:03.511Z,18.60
2023-05-24T18:32:45.954Z,18.50
2023-05-24T18:35:25.971Z,18.50
2023-05-24T18:37:56.497Z,18.50
2023-05-24T18:40:27.372Z,18.50
2023-05-24T18:42:58.945Z,18.50
2023-05-24T18:45:32.383Z,18.40
2023-05-24T18:48:03.121Z,18.40
2023-05-24T18:50:32.804Z,18.40
2023-05-24T18:53:08.021Z,18.30
2023-05-24T18:55:37.698Z,18.30
2023-05-24T18:58:10.982Z,18.20
2023-05-24T19:00:44.987Z,18.10
2023-05-24T19:03:16.306Z,18.00
2023-05-24T19:05:44.824Z,17.90
2023-05-24T19:08:15.880Z,17.80
2023-05-24T19:10:51.283Z,17.70
2023-05-24T19:13:23.872Z,17.70
2023-05-24T19:15:55.157Z,17.60
2023-05-24T19:18:26.871Z,17.50
2023-05-24T19:21:01.857Z,17.40
2023-05-24T19:23:34.627Z,17.40
2023-05-24T19:26:08.338Z,17.30
2023-05-24T19:28:43.805Z,17.20
2023-05-24T19:31:19.983Z,17.10
2023-05-24T19:36:33.355Z,17.00
2023-05-24T19:39:05.042Z,16.90
2023-05-24T19:41:34.108Z,16.90
2023-05-24T19:44:04.501Z,16.90
2023-05-24T19:46:35.259Z,16.90
2023-05-24T19:49:06.128Z,16.80
2023-05-24T19:51:40.366Z,16.80
2023-05-24T19:54:12.000Z,16.80
2023-05-24T19:56:42.693Z,16.70
2023-05-24T19:59:14.665Z,16.70
2023-05-24T20:01:45.542Z,16.60
2023-05-24T20:04:16.201Z,16.50
2023-05-24T20:06:44.809Z,16.40
2023-05-24T20:09:15.571Z,16.50
2023-05-24T20:11:47.010Z,16.40
2023-05-24T20:14:21.096Z,16.40
2023-05-24T20:16:49.811Z,16.50
2023-05-24T20:19:23.767Z,16.50
2023-05-24T20:21:55.153Z,16.50
2023-05-24T20:24:24.923Z,16.50
2023-05-24T20:26:53.632Z,16.50
2023-05-24T20:29:28.533Z,16.40
2023-05-24T20:31:58.363Z,16.40
2023-05-24T20:34:31.410Z,16.40
2023-05-24T20:36:58.940Z,16.40
2023-05-24T20:39:30.897Z,16.40
2023-05-24T20:42:01.607Z,16.30
2023-05-24T20:44:32.219Z,16.20
2023-05-24T20:46:59.465Z,16.20
2023-05-24T20:49:30.799Z,16.20
2023-05-24T20:52:00.035Z,16.10
2023-05-24T20:54:29.163Z,16.10
2023-05-24T20:56:59.046Z,16.00
2023-05-24T20:59:29.901Z,15.90
2023-05-24T21:01:59.788Z,15.90
2023-05-24T21:04:29.949Z,15.80
2023-05-24T21:06:57.174Z,15.80
2023-05-24T21:09:27.729Z,15.80
2023-05-24T21:11:57.479Z,15.80
2023-05-24T21:14:26.428Z,15.90
2023-05-24T21:17:03.292Z,15.80
2023-05-24T21:19:33.994Z,15.70
2023-05-24T21:22:03.167Z,15.70
2023-05-24T21:24:33.370Z,15.70
2023-05-24T21:27:05.383Z,15.70
2023-05-24T21:29:35.498Z,15.60
2023-05-24T21:32:04.256Z,15.60
2023-05-24T21:34:33.436Z,15.50
2023-05-24T21:37:04.066Z,15.50
2023-05-24T21:39:36.491Z,15.40
2023-05-24T21:42:07.754Z,15.30
2023-05-24T21:44:37.592Z,15.30
2023-05-24T21:47:14.281Z,15.30
2023-05-24T21:49:43.896Z,15.10
2023-05-24T21:52:12.968Z,15.10
2023-05-24T21:54:42.572Z,15.00
2023-05-24T21:57:14.896Z,15.00
2023-05-24T21:59:45.558Z,15.00
2023-05-24T22:02:14.917Z,15.00
2023-05-24T22:04:44.283Z,15.00
2023-05-24T22:07:16.407Z,15.00
2023-05-24T22:09:46.133Z,15.00
2023-05-24T22:12:17.135Z,14.90
2023-05-24T22:14:47.233Z,15.00
2023-05-24T22:17:18.245Z,14.90
2023-05-24T22:19:48.027Z,14.90
2023-05-24T22:22:21.267Z,14.90
2023-05-24T22:24:51.996Z,14.90
2023-05-24T22:27:22.080Z,14.80
2023-05-24T22:29:53.142Z,14.80
2023-05-24T22:32:23.794Z,14.80
2023-05-24T22:34:54.591Z,14.60
2023-05-24T22:37:25.074Z,14.50
2023-05-24T22:39:54.982Z,14.60
2023-05-24T22:42:24.525Z,14.50
2023-05-24T22:45:04.049Z,14.50
2023-05-24T22:47:33.781Z,14.50
2023-05-24T22:50:02.831Z,14.50
2023-05-24T22:52:36.668Z,14.40
2023-05-24T22:55:07.479Z,14.20
2023-05-24T22:57:41.772Z,14.30
2023-05-24T23:00:15.772Z,14.30
2023-05-24T23:02:46.539Z,14.30
2023-05-24T23:05:18.046Z,14.20
2023-05-24T23:07:48.700Z,14.20
2023-05-24T23:10:19.345Z,14.20
2023-05-24T23:12:54.439Z,14.20
2023-05-24T23:15:23.652Z,14.00
2023-05-24T23:17:55.528Z,14.00
2023-05-24T23:20:29.046Z,13.90
2023-05-24T23:23:01.645Z,13.90
2023-05-24T23:25:29.280Z,13.90
2023-05-24T23:28:00.500Z,13.70
2023-05-24T23:30:31.861Z,13.70
2023-05-24T23:33:02.961Z,13.70
2023-05-24T23:35:30.408Z,13.80
2023-05-24T23:37:59.479Z,13.80
2023-05-24T23:40:29.834Z,13.80
2023-05-24T23:42:57.914Z,13.70
2023-05-24T23:45:29.551Z,13.70
2023-05-24T23:48:03.412Z,13.70
2023-05-24T23:50:46.345Z,13.60
2023-05-24T23:53:25.555Z,13.50
2023-05-24T23:55:57.256Z,13.50
2023-05-24T23:58:28.955Z,13.50
